sensor_id;sensor_type;location;lat;lon;timestamp;pressure;altitude;pressure_sealevel;temperature;humidity
68199;BME280;55021;51.554;17.044;2023-05-25T00:03:59;101270.38;;;9.90;80.16
68199;BME280;55021;51.554;17.044;2023-05-25T00:19:01;101262.72;;;9.74;80.58
68199;BME280;55021;51.554;17.044;2023-05-25T00:34:04;101229.25;;;9.34;82.11
68199;BME280;55021;51.554;17.044;2023-05-25T00:49:07;101224.91;;;9.74;82.94
68199;BME280;55021;51.554;17.044;2023-05-25T01:04:12;101255.03;;;10.73;80.50
68199;BME280;55021;51.554;17.044;2023-05-25T01:19:16;101217.03;;;11.33;80.36
68199;BME280;55021;51.554;17.044;2023-05-25T01:34:19;101231.28;;;11.83;81.10
68199;BME280;55021;51.554;17.044;2023-05-25T01:49:26;101231.97;;;12.33;80.26
68199;BME280;55021;51.554;17.044;2023-05-25T02:04:29;101261.44;;;12.65;79.23
68199;BME280;55021;51.554;17.044;2023-05-25T02:19:32;101155.06;;;12.15;79.09
68199;BME280;55021;51.554;17.044;2023-05-25T02:34:34;101250.28;;;12.68;80.06
68199;BME280;55021;51.554;17.044;2023-05-25T02:49:37;101256.69;;;12.76;80.31
68199;BME280;55021;51.554;17.044;2023-05-25T03:04:42;101260.84;;;13.08;78.96
68199;BME280;55021;51.554;17.044;2023-05-25T03:19:46;101269.44;;;13.40;77.95
68199;BME280;55021;51.554;17.044;2023-05-25T03:34:48;101232.56;;;13.01;78.60
68199;BME280;55021;51.554;17.044;2023-05-25T03:49:51;101259.56;;;13.39;77.65
68199;BME280;55021;51.554;17.044;2023-05-25T04:04:53;101269.13;;;13.43;77.81
68199;BME280;55021;51.554;17.044;2023-05-25T04:19:55;101291.81;;;13.52;77.92
68199;BME280;55021;51.554;17.044;2023-05-25T04:34:58;101286.22;;;13.53;77.88
68199;BME280;55021;51.554;17.044;2023-05-25T04:50:00;101321.16;;;13.93;78.11
68199;BME280;55021;51.554;17.044;2023-05-25T05:05:03;101302.66;;;13.96;77.84
68199;BME280;55021;51.554;17.044;2023-05-25T05:20:06;101316.66;;;14.19;76.49
68199;BME280;55021;51.554;17.044;2023-05-25T05:35:10;101325.59;;;14.73;74.68
68199;BME280;55021;51.554;17.044;2023-05-25T05:50:27;101285.72;;;14.46;75.34
68199;BME280;55021;51.554;17.044;2023-05-25T06:05:29;101247.19;;;14.59;73.70
68199;BME280;55021;51.554;17.044;2023-05-25T06:20:38;101301.22;;;14.63;73.41
68199;BME280;55021;51.554;17.044;2023-05-25T06:35:40;101332.63;;;15.35;72.76
68199;BME280;55021;51.554;17.044;2023-05-25T06:50:47;101336.25;;;16.01;69.24
68199;BME280;55021;51.554;17.044;2023-05-25T07:06:10;101348.06;;;17.07;66.70
68199;BME280;55021;51.554;17.044;2023-05-25T07:21:14;101339.53;;;17.48;65.05
68199;BME280;55021;51.554;17.044;2023-05-25T07:36:21;101352.22;;;17.88;64.40
68199;BME280;55021;51.554;17.044;2023-05-25T07:51:28;101352.00;;;18.66;62.13
68199;BME280;55021;51.554;17.044;2023-05-25T08:06:36;101347.31;;;19.12;60.69
68199;BME280;55021;51.554;17.044;2023-05-25T08:21:53;101337.13;;;17.92;63.59
68199;BME280;55021;51.554;17.044;2023-05-25T08:36:55;101333.19;;;19.00;61.45
68199;BME280;55021;51.554;17.044;2023-05-25T08:51:58;101349.94;;;19.93;57.02
68199;BME280;55021;51.554;17.044;2023-05-25T09:07:01;101342.34;;;20.16;55.41
68199;BME280;55021;51.554;17.044;2023-05-25T09:22:05;101354.41;;;19.79;57.02
68199;BME280;55021;51.554;17.044;2023-05-25T09:37:12;101373.13;;;20.62;56.25
68199;BME280;55021;51.554;17.044;2023-05-25T09:52:15;101307.47;;;20.80;55.81
68199;BME280;55021;51.554;17.044;2023-05-25T10:07:18;101377.59;;;19.92;58.15
68199;BME280;55021;51.554;17.044;2023-05-25T10:22:47;101324.38;;;21.05;54.86
68199;BME280;55021;51.554;17.044;2023-05-25T10:38:09;101353.00;;;21.86;52.53
68199;BME280;55021;51.554;17.044;2023-05-25T10:53:14;101357.19;;;20.58;57.04
68199;BME280;55021;51.554;17.044;2023-05-25T11:08:26;101276.72;;;20.49;53.56
68199;BME280;55021;51.554;17.044;2023-05-25T11:23:58;101319.22;;;21.57;53.06
68199;BME280;55021;51.554;17.044;2023-05-25T11:39:03;101333.50;;;22.35;50.74
68199;BME280;55021;51.554;17.044;2023-05-25T11:54:06;101327.94;;;22.22;50.44
68199;BME280;55021;51.554;17.044;2023-05-25T12:09:22;101338.66;;;21.22;52.93
68199;BME280;55021;51.554;17.044;2023-05-25T12:24:27;101297.19;;;22.25;50.33
68199;BME280;55021;51.554;17.044;2023-05-25T12:39:33;101304.00;;;22.29;51.85
68199;BME280;55021;51.554;17.044;2023-05-25T12:54:39;101307.44;;;21.36;51.72
68199;BME280;55021;51.554;17.044;2023-05-25T13:09:45;101287.38;;;22.09;51.04
68199;BME280;55021;51.554;17.044;2023-05-25T13:25:00;101198.25;;;23.07;47.74
68199;BME280;55021;51.554;17.044;2023-05-25T13:40:03;101282.50;;;21.50;51.56
68199;BME280;55021;51.554;17.044;2023-05-25T13:55:06;101268.81;;;20.88;54.05
68199;BME280;55021;51.554;17.044;2023-05-25T14:10:10;101213.38;;;22.65;49.86
68199;BME280;55021;51.554;17.044;2023-05-25T14:25:12;101173.44;;;21.49;49.14
68199;BME280;55021;51.554;17.044;2023-05-25T14:40:15;101174.72;;;22.91;45.16
68199;BME280;55021;51.554;17.044;2023-05-25T14:55:18;101205.47;;;21.70;48.70
68199;BME280;55021;51.554;17.044;2023-05-25T15:10:21;101162.63;;;22.86;46.45
68199;BME280;55021;51.554;17.044;2023-05-25T15:25:24;101197.75;;;23.29;46.31
68199;BME280;55021;51.554;17.044;2023-05-25T15:40:29;101134.75;;;22.23;47.13
68199;BME280;55021;51.554;17.044;2023-05-25T15:55:32;101182.38;;;21.11;49.27
68199;BME280;55021;51.554;17.044;2023-05-25T16:10:34;101169.06;;;22.47;49.28
68199;BME280;55021;51.554;17.044;2023-05-25T16:25:37;101092.13;;;22.12;46.27
68199;BME280;55021;51.554;17.044;2023-05-25T16:40:40;101086.19;;;21.70;48.40
68199;BME280;55021;51.554;17.044;2023-05-25T16:55:48;101136.75;;;20.88;51.24
68199;BME280;55021;51.554;17.044;2023-05-25T17:10:51;101145.94;;;21.63;46.17
68199;BME280;55021;51.554;17.044;2023-05-25T17:26:08;101095.53;;;20.95;46.84
68199;BME280;55021;51.554;17.044;2023-05-25T17:41:23;101198.66;;;21.06;48.66
68199;BME280;55021;51.554;17.044;2023-05-25T17:56:29;101184.16;;;20.84;50.79
68199;BME280;55021;51.554;17.044;2023-05-25T18:11:34;101198.75;;;20.29;54.45
68199;BME280;55021;51.554;17.044;2023-05-25T18:26:37;101201.72;;;19.13;58.11
68199;BME280;55021;51.554;17.044;2023-05-25T18:41:40;101209.19;;;18.46;61.32
68199;BME280;55021;51.554;17.044;2023-05-25T18:56:43;101211.19;;;17.39;64.97
68199;BME280;55021;51.554;17.044;2023-05-25T19:11:45;101220.56;;;17.14;65.03
68199;BME280;55021;51.554;17.044;2023-05-25T19:26:48;101232.19;;;16.53;66.03
68199;BME280;55021;51.554;17.044;2023-05-25T19:41:50;101257.00;;;15.45;70.20
68199;BME280;55021;51.554;17.044;2023-05-25T19:56:53;101257.63;;;14.89;71.62
68199;BME280;55021;51.554;17.044;2023-05-25T20:11:56;101255.78;;;14.64;72.55
68199;BME280;55021;51.554;17.044;2023-05-25T20:26:58;101238.84;;;14.34;72.97
68199;BME280;55021;51.554;17.044;2023-05-25T20:42:24;101271.41;;;13.83;74.35
68199;BME280;55021;51.554;17.044;2023-05-25T20:57:26;101286.88;;;13.82;73.98
68199;BME280;55021;51.554;17.044;2023-05-25T21:12:29;101288.03;;;13.35;76.82
68199;BME280;55021;51.554;17.044;2023-05-25T21:27:31;101263.16;;;14.10;72.56
68199;BME280;55021;51.554;17.044;2023-05-25T21:42:39;101290.16;;;13.68;76.08
68199;BME280;55021;51.554;17.044;2023-05-25T21:58:40;101280.19;;;13.32;76.36
68199;BME280;55021;51.554;17.044;2023-05-25T22:13:42;101293.03;;;13.40;76.15
68199;BME280;55021;51.554;17.044;2023-05-25T22:28:45;101255.72;;;13.05;76.66
68199;BME280;55021;51.554;17.044;2023-05-25T22:43:47;101304.94;;;13.56;75.94
68199;BME280;55021;51.554;17.044;2023-05-25T22:58:49;101318.28;;;13.77;74.20
68199;BME280;55021;51.554;17.044;2023-05-25T23:13:52;101273.97;;;13.12;75.97
68199;BME280;55021;51.554;17.044;2023-05-25T23:28:54;101305.72;;;13.49;75.69
68199;BME280;55021;51.554;17.044;2023-05-25T23:43:56;101264.63;;;14.22;72.32
68199;BME280;55021;51.554;17.044;2023-05-25T23:58:59;101328.78;;;14.42;73.37
